Time;durP1;ratioP1;P1;durP2;ratioP2;P2;SDS_P1;SDS_P2;PMS_P1;PMS_P2;Temp;Humidity;BMP_temperature;BMP_pressure;BME280_temperature;BME280_humidity;BME280_pressure;Samples;Min_cycle;Max_cycle;Signal;HPM_P1;HPM_P2
2023/05/14 00:01:35;;;;;;;6.50;3.30;;;;;;;16.42;38.66;101230.71;108171;1287;23618;-60
2023/05/14 00:04:02;;;;;;;7.00;3.10;;;;;;;16.43;38.73;101231.04;108174;1287;21988;-59
2023/05/14 00:06:27;;;;;;;8.00;3.30;;;;;;;16.46;38.87;101230.80;108158;1287;21989;-60
2023/05/14 00:08:53;;;;;;;6.10;3.00;;;;;;;16.48;38.66;101233.95;108098;1287;21982;-59
2023/05/14 00:11:20;;;;;;;6.90;3.00;;;;;;;16.51;38.73;101233.54;107393;1287;1002783;-59
2023/05/14 00:13:46;;;;;;;5.90;3.00;;;;;;;16.53;38.58;101231.36;108213;1287;22055;-60
2023/05/14 00:16:11;;;;;;;7.50;3.10;;;;;;;16.55;38.48;101232.20;108136;1287;22026;-58
2023/05/14 00:18:37;;;;;;;9.90;3.30;;;;;;;16.57;38.77;101237.27;108208;1287;21991;-59
2023/05/14 00:21:03;;;;;;;4.70;2.60;;;;;;;16.55;38.85;101233.43;108122;1287;21990;-59
2023/05/14 00:23:28;;;;;;;7.30;3.30;;;;;;;16.54;38.74;101233.82;108115;1287;21997;-59
2023/05/14 00:25:54;;;;;;;6.20;3.20;;;;;;;16.52;38.51;101231.38;108143;1287;21999;-59
2023/05/14 00:28:20;;;;;;;5.00;3.30;;;;;;;16.52;38.48;101230.14;108183;1287;21991;-59
2023/05/14 00:30:45;;;;;;;5.00;3.20;;;;;;;16.50;38.73;101232.65;108198;1287;21984;-61
2023/05/14 00:33:11;;;;;;;8.20;3.70;;;;;;;16.47;38.81;101233.96;108163;1287;21991;-59
2023/05/14 00:35:37;;;;;;;5.90;3.10;;;;;;;16.44;38.83;101235.81;108198;1287;21993;-61
2023/05/14 00:38:02;;;;;;;5.60;2.70;;;;;;;16.42;38.77;101233.91;108202;1287;21983;-59
2023/05/14 00:40:28;;;;;;;4.90;2.90;;;;;;;16.40;39.11;101235.53;108185;1287;21992;-61
2023/05/14 00:42:54;;;;;;;5.70;3.40;;;;;;;16.37;38.96;101235.78;108130;1287;21981;-60
2023/05/14 00:45:20;;;;;;;7.70;3.60;;;;;;;16.38;38.91;101238.96;108146;1287;21987;-60
2023/05/14 00:47:46;;;;;;;6.40;3.30;;;;;;;16.40;38.91;101241.21;108236;1287;21997;-61
2023/05/14 00:50:12;;;;;;;6.30;3.30;;;;;;;16.41;39.02;101240.84;108142;1287;22022;-59
2023/05/14 00:52:38;;;;;;;7.30;3.30;;;;;;;16.41;38.89;101237.30;107942;1287;22004;-59
2023/05/14 00:55:05;;;;;;;8.20;3.00;;;;;;;16.41;39.02;101239.42;107877;1287;23212;-59
2023/05/14 00:57:35;;;;;;;5.90;2.90;;;;;;;16.40;38.75;101235.89;108055;1287;21993;-60
2023/05/14 01:00:01;;;;;;;6.60;3.20;;;;;;;16.41;38.75;101235.69;107866;1287;24348;-59
2023/05/14 01:02:28;;;;;;;8.50;3.20;;;;;;;16.43;38.77;101234.59;108195;1287;22056;-59
2023/05/14 01:04:54;;;;;;;4.30;3.10;;;;;;;16.45;38.59;101236.33;108139;1287;22007;-59
2023/05/14 01:07:24;;;;;;;6.10;3.90;;;;;;;16.46;38.77;101239.13;108008;1287;22130;-60
2023/05/14 01:10:05;;;;;;;7.00;2.80;;;;;;;16.45;38.97;101236.84;107988;1288;22004;-59
2023/05/14 01:12:54;;;;;;;6.30;3.10;;;;;;;16.42;39.10;101233.20;108125;1288;21990;-59
2023/05/14 01:15:22;;;;;;;4.20;2.70;;;;;;;16.40;39.07;101234.83;108083;1288;22049;-59
2023/05/14 01:18:02;;;;;;;6.50;2.90;;;;;;;16.40;39.28;101235.71;107974;1287;21987;-59
2023/05/14 01:20:28;;;;;;;5.40;3.20;;;;;;;16.40;39.24;101234.31;108138;1287;21998;-60
2023/05/14 01:22:54;;;;;;;6.30;2.90;;;;;;;16.40;39.17;101233.60;108155;1287;21999;-59
2023/05/14 01:25:20;;;;;;;8.00;3.30;;;;;;;16.40;39.08;101230.56;108122;1287;23056;-58
2023/05/14 01:27:55;;;;;;;7.20;2.90;;;;;;;16.43;38.99;101231.77;108132;1287;22033;-59
2023/05/14 01:30:24;;;;;;;6.70;2.80;;;;;;;16.45;38.88;101228.36;108110;1287;22001;-59
2023/05/14 01:32:51;;;;;;;8.10;2.80;;;;;;;16.47;38.93;101229.90;108056;1288;21990;-60
2023/05/14 01:35:17;;;;;;;9.10;3.40;;;;;;;16.49;38.93;101228.08;108091;1288;21994;-59
2023/05/14 01:37:43;;;;;;;5.80;3.20;;;;;;;16.51;38.85;101227.69;107852;1288;22464;-60
2023/05/14 01:40:08;;;;;;;6.30;3.00;;;;;;;16.54;38.85;101228.68;108114;1287;21984;-60
2023/05/14 01:42:35;;;;;;;6.10;3.10;;;;;;;16.55;38.82;101228.14;107822;1287;21987;-60
2023/05/14 01:45:01;;;;;;;6.60;3.40;;;;;;;16.55;38.75;101230.25;108092;1287;21985;-59
2023/05/14 01:47:26;;;;;;;7.00;3.20;;;;;;;16.54;38.67;101229.55;108079;1287;21992;-59
2023/05/14 01:49:52;;;;;;;7.20;3.10;;;;;;;16.54;38.85;101232.05;107329;1281;1003212;-59
2023/05/14 01:52:20;;;;;;;7.30;3.20;;;;;;;16.51;38.75;101234.94;108130;1288;21987;-61
2023/05/14 01:54:48;;;;;;;5.70;2.70;;;;;;;16.48;38.85;101235.55;108096;1288;21995;-60
2023/05/14 01:57:14;;;;;;;6.10;2.70;;;;;;;16.53;38.82;101237.20;108127;1287;21994;-60
2023/05/14 01:59:40;;;;;;;6.30;3.10;;;;;;;16.53;38.83;101236.67;108140;1287;21989;-59
2023/05/14 02:02:05;;;;;;;5.40;2.80;;;;;;;16.50;38.75;101237.08;108125;1287;22043;-61
2023/05/14 02:04:31;;;;;;;7.20;3.20;;;;;;;16.51;38.65;101238.66;108128;1287;22012;-59
2023/05/14 02:06:56;;;;;;;8.30;2.90;;;;;;;16.50;38.66;101238.15;108074;1287;21983;-59
2023/05/14 02:09:23;;;;;;;6.10;3.30;;;;;;;16.47;38.71;101236.62;108107;1287;21986;-59
2023/05/14 02:11:48;;;;;;;9.20;3.80;;;;;;;16.43;38.72;101237.59;108104;1288;21998;-59
2023/05/14 02:14:14;;;;;;;5.30;2.90;;;;;;;16.41;38.72;101238.73;108116;1288;21995;-59
2023/05/14 02:16:40;;;;;;;8.90;2.90;;;;;;;16.39;38.76;101241.61;108071;1287;21998;-58
2023/05/14 02:19:06;;;;;;;8.80;3.00;;;;;;;16.38;38.78;101243.20;107833;1288;21995;-59
2023/05/14 02:21:32;;;;;;;6.30;3.10;;;;;;;16.35;38.91;101245.39;108079;1288;22457;-59
2023/05/14 02:23:57;;;;;;;6.60;3.10;;;;;;;16.28;38.88;101243.79;108106;1288;21989;-59
2023/05/14 02:26:23;;;;;;;8.30;3.70;;;;;;;16.22;39.24;101245.35;108120;1287;21993;-58
2023/05/14 02:28:49;;;;;;;5.20;2.50;;;;;;;16.15;39.18;101247.58;108117;1287;21987;-60
2023/05/14 02:31:16;;;;;;;5.50;2.70;;;;;;;16.10;39.44;101245.42;108139;1287;21989;-61
2023/05/14 02:33:42;;;;;;;5.00;2.70;;;;;;;16.07;39.21;101239.47;108165;1287;21988;-59
2023/05/14 02:36:07;;;;;;;5.80;2.90;;;;;;;16.04;39.17;101240.40;108126;1287;22004;-59
2023/05/14 02:38:33;;;;;;;7.10;3.00;;;;;;;16.04;39.44;101240.59;108121;1288;21982;-58
2023/05/14 02:40:59;;;;;;;7.30;3.20;;;;;;;16.02;39.38;101239.73;108145;1288;21989;-61
2023/05/14 02:43:25;;;;;;;5.90;3.30;;;;;;;16.02;39.44;101240.27;108132;1288;21990;-59
2023/05/14 02:45:50;;;;;;;4.80;3.00;;;;;;;15.98;39.42;101237.88;108178;1286;22024;-59
2023/05/14 02:48:16;;;;;;;5.30;3.00;;;;;;;15.94;39.54;101235.48;108024;1288;22043;-59
2023/05/14 02:50:42;;;;;;;7.40;3.10;;;;;;;15.93;39.40;101233.91;108033;1288;21995;-59
2023/05/14 02:53:08;;;;;;;8.90;3.30;;;;;;;15.94;39.39;101234.23;108031;1288;21995;-59
2023/05/14 02:55:34;;;;;;;7.20;3.50;;;;;;;15.98;39.43;101236.81;107530;1287;1002303;-60
2023/05/14 02:58:00;;;;;;;23.60;4.50;;;;;;;16.02;39.49;101243.81;108125;1287;21999;-59
2023/05/14 03:00:25;;;;;;;6.40;3.00;;;;;;;16.05;39.25;101247.64;108145;1288;22034;-58
2023/05/14 03:02:51;;;;;;;6.70;2.90;;;;;;;16.08;39.37;101245.98;108098;1288;21989;-59
2023/05/14 03:05:17;;;;;;;13.00;3.40;;;;;;;16.11;39.51;101243.08;108098;1287;21990;-59
2023/05/14 03:07:43;;;;;;;9.40;3.20;;;;;;;16.12;39.59;101242.34;108115;1288;21999;-59
2023/05/14 03:10:09;;;;;;;7.40;3.50;;;;;;;16.14;39.81;101238.41;108099;1288;22095;-60
2023/05/14 03:12:35;;;;;;;8.90;3.20;;;;;;;16.15;39.82;101241.40;108193;1288;22005;-60
2023/05/14 03:15:00;;;;;;;12.00;7.30;;;;;;;16.17;39.77;101244.54;108110;1287;22203;-61
2023/05/14 03:17:26;;;;;;;8.20;5.30;;;;;;;16.21;39.78;101245.52;108082;1287;21992;-61
2023/05/14 03:19:51;;;;;;;8.70;3.80;;;;;;;16.26;39.98;101246.84;108116;1288;21988;-61
2023/05/14 03:22:17;;;;;;;10.00;3.40;;;;;;;16.30;40.11;101248.34;108085;1287;22037;-57
2023/05/14 03:24:43;;;;;;;6.20;3.10;;;;;;;16.35;39.99;101246.99;108168;1287;22046;-61
2023/05/14 03:27:09;;;;;;;7.10;3.10;;;;;;;16.40;40.06;101253.44;108136;1287;21987;-60
2023/05/14 03:29:35;;;;;;;9.60;3.30;;;;;;;16.46;40.04;101253.64;108126;1287;21995;-58
2023/05/14 03:32:00;;;;;;;7.00;2.70;;;;;;;16.54;40.01;101256.13;108120;1287;21993;-61
2023/05/14 03:34:26;;;;;;;6.00;3.20;;;;;;;16.62;40.06;101256.46;108087;1287;21989;-60
2023/05/14 03:36:52;;;;;;;7.20;3.20;;;;;;;16.72;40.07;101260.50;108080;1287;21996;-61
2023/05/14 03:39:20;;;;;;;6.50;3.20;;;;;;;16.80;40.00;101263.33;108147;1287;22858;-61
2023/05/14 03:41:46;;;;;;;8.40;3.30;;;;;;;16.88;39.97;101261.70;108141;1287;22024;-58
2023/05/14 03:44:12;;;;;;;10.30;3.50;;;;;;;16.97;40.00;101261.15;108103;1287;21983;-58
2023/05/14 03:46:37;;;;;;;8.10;2.80;;;;;;;17.06;40.07;101258.98;108120;1287;21987;-60
2023/05/14 03:49:03;;;;;;;6.80;3.00;;;;;;;17.16;39.93;101262.46;108119;1287;21986;-57
2023/05/14 03:51:30;;;;;;;6.50;3.10;;;;;;;17.24;40.02;101260.64;108107;1287;21990;-58
2023/05/14 03:53:57;;;;;;;8.60;3.30;;;;;;;17.32;40.08;101261.15;108179;1287;21992;-60
2023/05/14 03:56:23;;;;;;;5.90;3.50;;;;;;;17.41;40.11;101262.54;108129;1287;21994;-61
2023/05/14 03:58:49;;;;;;;8.40;3.50;;;;;;;17.49;40.01;101261.41;108220;1287;22004;-60
2023/05/14 04:01:15;;;;;;;4.20;3.00;;;;;;;17.58;39.98;101262.77;108128;1287;21996;-58
2023/05/14 04:03:40;;;;;;;8.00;3.70;;;;;;;17.68;40.11;101267.80;108159;1287;23763;-58
2023/05/14 04:06:06;;;;;;;7.00;2.50;;;;;;;17.79;39.90;101265.20;108167;1284;21984;-61
2023/05/14 04:08:32;;;;;;;6.10;2.80;;;;;;;17.91;39.92;101267.17;108238;1287;21997;-58
2023/05/14 04:10:57;;;;;;;5.30;2.60;;;;;;;18.03;39.86;101263.86;108108;1287;21982;-58
2023/05/14 04:13:24;;;;;;;6.00;2.80;;;;;;;18.15;39.78;101266.88;108074;1286;22006;-57
2023/05/14 04:15:49;;;;;;;5.80;2.70;;;;;;;18.27;39.76;101265.27;108080;1283;23055;-60
2023/05/14 04:18:16;;;;;;;10.00;5.30;;;;;;;18.39;39.76;101268.80;108070;1287;21990;-61
2023/05/14 04:20:41;;;;;;;9.60;4.40;;;;;;;18.51;39.65;101271.27;108060;1287;21995;-61
2023/05/14 04:23:07;;;;;;;20.70;12.30;;;;;;;18.64;39.40;101270.00;108103;1287;21990;-61
2023/05/14 04:25:33;;;;;;;9.40;5.20;;;;;;;18.77;39.49;101270.11;108054;1287;21980;-62
2023/05/14 04:27:59;;;;;;;10.00;6.10;;;;;;;18.90;39.43;101271.64;108125;1287;21987;-58
2023/05/14 04:30:25;;;;;;;10.90;5.60;;;;;;;19.05;39.33;101271.91;108139;1287;21990;-58
2023/05/14 04:32:51;;;;;;;9.80;4.10;;;;;;;19.20;39.24;101271.21;108082;1287;21985;-62
2023/05/14 04:35:17;;;;;;;5.40;3.40;;;;;;;19.33;39.23;101267.56;108070;1287;23612;-58
2023/05/14 04:37:42;;;;;;;5.20;3.10;;;;;;;19.47;39.16;101270.28;108027;1287;22455;-58
2023/05/14 04:40:12;;;;;;;8.30;3.50;;;;;;;19.61;39.10;101272.30;108184;1287;21984;-61
2023/05/14 04:42:38;;;;;;;5.40;3.00;;;;;;;19.76;39.06;101272.45;108121;1287;23769;-61
2023/05/14 04:45:05;;;;;;;7.80;2.80;;;;;;;19.91;39.09;101270.34;108148;1287;22804;-61
2023/05/14 04:47:31;;;;;;;8.00;3.40;;;;;;;20.06;38.86;101274.23;108083;1287;21984;-58
2023/05/14 04:49:57;;;;;;;6.70;3.10;;;;;;;20.24;38.75;101274.81;108095;1287;21988;-58
2023/05/14 04:52:23;;;;;;;4.70;3.50;;;;;;;20.39;38.72;101280.98;108082;1288;21990;-58
2023/05/14 04:54:49;;;;;;;4.40;2.50;;;;;;;20.55;38.63;101276.27;108102;1288;21995;-58
2023/05/14 04:57:15;;;;;;;6.80;3.20;;;;;;;20.68;38.31;101269.32;108090;1286;21995;-61
2023/05/14 04:59:40;;;;;;;7.00;2.80;;;;;;;20.81;38.36;101265.98;108103;1276;22001;-58
2023/05/14 05:02:06;;;;;;;5.80;2.80;;;;;;;20.96;38.00;101267.17;108131;1287;21990;-61
2023/05/14 05:04:32;;;;;;;6.30;2.70;;;;;;;21.12;37.80;101265.08;108129;1287;22000;-58
2023/05/14 05:06:57;;;;;;;6.10;2.70;;;;;;;21.30;37.91;101271.09;108143;1287;21989;-58
2023/05/14 05:09:23;;;;;;;5.50;2.80;;;;;;;21.47;37.79;101272.32;108075;1287;22003;-60
2023/05/14 05:11:49;;;;;;;5.50;2.60;;;;;;;21.62;37.60;101273.27;108107;1288;21994;-61
2023/05/14 05:14:15;;;;;;;5.20;2.60;;;;;;;21.77;37.29;101271.72;108111;1288;21990;-58
2023/05/14 05:16:41;;;;;;;4.40;2.60;;;;;;;21.93;37.27;101266.01;108112;1288;21997;-62
2023/05/14 05:19:07;;;;;;;23.50;4.50;;;;;;;22.11;37.19;101266.41;108091;1288;21989;-61
2023/05/14 05:21:33;;;;;;;7.00;3.00;;;;;;;22.27;37.14;101268.53;108149;1284;22024;-61
2023/05/14 05:23:59;;;;;;;7.40;2.70;;;;;;;22.43;37.06;101268.53;108142;1288;21985;-61
2023/05/14 05:26:25;;;;;;;6.60;3.10;;;;;;;22.61;36.83;101268.59;108062;1276;22049;-59
2023/05/14 05:28:51;;;;;;;6.60;2.50;;;;;;;22.78;36.91;101271.30;108162;1286;21996;-59
2023/05/14 05:31:17;;;;;;;5.20;2.60;;;;;;;23.04;36.74;101270.77;108095;1287;22032;-59
2023/05/14 05:33:42;;;;;;;3.90;2.30;;;;;;;23.31;36.55;101266.89;108103;1287;21985;-58
2023/05/14 05:36:08;;;;;;;4.90;2.40;;;;;;;23.57;36.09;101264.67;108072;1288;22000;-58
2023/05/14 05:38:34;;;;;;;3.80;2.00;;;;;;;23.87;36.23;101265.95;108057;1287;21995;-59
2023/05/14 05:41:00;;;;;;;4.20;2.30;;;;;;;24.13;36.13;101264.91;107996;1287;22211;-61
2023/05/14 05:43:27;;;;;;;3.20;2.20;;;;;;;24.38;36.04;101268.15;108085;1287;21987;-61
2023/05/14 05:45:53;;;;;;;6.20;2.70;;;;;;;24.65;36.19;101268.48;108096;1287;21991;-60
2023/05/14 05:48:19;;;;;;;4.90;2.40;;;;;;;24.88;35.92;101274.15;108098;1287;22450;-59
2023/05/14 05:50:48;;;;;;;4.80;2.50;;;;;;;25.10;35.81;101278.27;108120;1287;21989;-60
2023/05/14 05:53:15;;;;;;;6.20;3.20;;;;;;;25.32;35.86;101276.06;108216;1285;21996;-58
2023/05/14 05:55:41;;;;;;;9.00;2.40;;;;;;;25.54;35.78;101276.58;108129;1287;23718;-58
2023/05/14 05:58:07;;;;;;;5.50;2.50;;;;;;;25.74;35.54;101275.70;108111;1287;21997;-60
2023/05/14 06:00:32;;;;;;;4.70;2.50;;;;;;;25.95;35.16;101272.43;108114;1287;23732;-60
2023/05/14 06:02:58;;;;;;;3.80;2.30;;;;;;;26.10;34.89;101277.77;108094;1287;21994;-61
2023/05/14 06:05:24;;;;;;;10.60;3.10;;;;;;;26.26;34.63;101280.02;108154;1287;21954;-60
2023/05/14 06:07:50;;;;;;;10.60;2.50;;;;;;;26.41;34.23;101283.75;108097;1288;22002;-60
2023/05/14 06:10:15;;;;;;;7.40;2.80;;;;;;;26.53;33.92;101284.03;108108;1287;21989;-60
2023/05/14 06:12:41;;;;;;;3.80;2.50;;;;;;;26.67;33.96;101283.46;107914;1287;22005;-60
2023/05/14 06:15:08;;;;;;;5.80;2.00;;;;;;;26.80;34.15;101283.70;108147;1287;21987;-60
2023/05/14 06:17:34;;;;;;;3.50;2.10;;;;;;;26.99;33.97;101285.17;108118;1287;21991;-60
2023/05/14 06:19:59;;;;;;;4.60;2.60;;;;;;;27.18;33.99;101283.58;108136;1287;21991;-60
2023/05/14 06:22:25;;;;;;;6.50;2.50;;;;;;;27.40;33.85;101278.79;108089;1287;22049;-60
2023/05/14 06:24:51;;;;;;;6.30;2.40;;;;;;;27.57;33.64;101275.86;108033;1287;23049;-60
2023/05/14 06:27:16;;;;;;;4.50;2.50;;;;;;;27.67;33.50;101277.70;108044;1288;21982;-60
2023/05/14 06:29:42;;;;;;;5.60;2.30;;;;;;;27.76;33.47;101275.80;108094;1288;21993;-60
2023/05/14 06:32:09;;;;;;;5.20;2.50;;;;;;;27.93;33.37;101279.23;108107;1287;21993;-60
2023/05/14 06:34:34;;;;;;;4.90;2.10;;;;;;;28.11;33.37;101274.79;107444;1287;1003010;-60
2023/05/14 06:37:02;;;;;;;4.30;2.40;;;;;;;28.29;33.35;101271.11;108170;1287;22092;-60
2023/05/14 06:39:28;;;;;;;3.90;2.20;;;;;;;28.47;33.09;101270.20;108168;1287;21987;-60
2023/05/14 06:41:54;;;;;;;7.40;2.50;;;;;;;28.62;33.11;101266.86;108120;1287;21993;-60
2023/05/14 06:44:19;;;;;;;4.30;2.00;;;;;;;28.86;32.95;101263.35;108090;1287;21955;-60
2023/05/14 06:46:45;;;;;;;6.00;2.50;;;;;;;29.17;33.05;101259.90;108094;1283;21997;-60
2023/05/14 06:49:11;;;;;;;5.10;2.00;;;;;;;29.50;32.77;101260.64;108135;1288;21987;-60
2023/05/14 06:51:37;;;;;;;6.10;2.40;;;;;;;29.83;32.87;101258.02;108105;1288;22025;-60
2023/05/14 06:54:03;;;;;;;2.90;1.90;;;;;;;30.08;32.65;101254.73;108115;1278;22751;-60
2023/05/14 06:56:29;;;;;;;6.80;2.40;;;;;;;30.23;32.30;101253.56;108130;1288;21990;-61
2023/05/14 06:58:55;;;;;;;6.00;2.10;;;;;;;30.35;31.87;101256.02;108136;1288;22036;-59
2023/05/14 07:01:20;;;;;;;4.30;2.00;;;;;;;30.50;31.94;101259.85;108126;1288;22024;-59
2023/05/14 07:03:46;;;;;;;7.30;1.80;;;;;;;30.68;31.74;101255.88;108099;1288;22028;-59
2023/05/14 07:06:12;;;;;;;2.90;1.60;;;;;;;30.80;31.30;101258.52;108129;1288;21992;-58
2023/05/14 07:08:38;;;;;;;6.40;1.90;;;;;;;30.94;31.36;101259.30;108160;1288;21986;-59
2023/05/14 07:11:04;;;;;;;7.10;1.90;;;;;;;31.17;31.13;101255.53;108077;1288;22080;-60
2023/05/14 07:13:30;;;;;;;4.40;1.60;;;;;;;31.32;30.48;101252.70;108091;1288;21999;-59
2023/05/14 07:15:56;;;;;;;5.10;1.90;;;;;;;31.38;30.75;101254.30;108107;1288;21991;-59
2023/05/14 07:18:22;;;;;;;3.30;1.90;;;;;;;31.51;30.66;101251.23;108117;1288;22005;-59
2023/05/14 07:20:48;;;;;;;4.60;2.30;;;;;;;31.63;30.68;101248.14;108141;1288;22027;-58
2023/05/14 07:23:14;;;;;;;3.40;2.20;;;;;;;31.81;29.95;101244.75;108157;1288;22010;-59
2023/05/14 07:25:40;;;;;;;3.80;1.60;;;;;;;31.88;29.13;101242.91;108099;1288;21990;-59
2023/05/14 07:28:06;;;;;;;3.60;1.80;;;;;;;31.89;28.98;101239.91;108137;1288;21989;-59
2023/05/14 07:30:32;;;;;;;5.90;2.10;;;;;;;31.93;29.14;101239.19;108103;1288;23631;-59
2023/05/14 07:32:58;;;;;;;3.10;1.60;;;;;;;32.12;29.70;101234.77;108191;1288;21989;-59
2023/05/14 07:35:23;;;;;;;2.80;1.90;;;;;;;32.35;28.89;101230.19;108119;1288;21994;-59
2023/05/14 07:37:49;;;;;;;4.10;2.20;;;;;;;32.52;28.03;101231.54;108111;1288;21989;-59
2023/05/14 07:40:15;;;;;;;5.00;1.60;;;;;;;32.59;28.18;101229.79;108138;1284;22453;-59
2023/05/14 07:42:41;;;;;;;2.90;1.90;;;;;;;32.74;28.49;101228.60;108084;1280;21993;-60
2023/05/14 07:45:08;;;;;;;4.30;1.80;;;;;;;32.91;28.53;101227.06;108124;1288;21991;-60
2023/05/14 07:47:34;;;;;;;3.40;1.80;;;;;;;33.18;28.90;101225.79;108198;1288;23612;-59
2023/05/14 07:50:00;;;;;;;3.30;1.60;;;;;;;33.49;28.64;101226.40;108080;1288;21994;-58
2023/05/14 07:52:26;;;;;;;3.30;1.50;;;;;;;33.72;27.86;101225.21;108124;1286;22184;-59
2023/05/14 07:54:51;;;;;;;5.50;2.20;;;;;;;33.92;27.46;101227.40;108102;1288;23730;-59
2023/05/14 07:57:18;;;;;;;5.20;1.70;;;;;;;33.96;26.61;101230.13;108171;1288;21994;-59
2023/05/14 07:59:43;;;;;;;4.40;1.60;;;;;;;34.06;27.25;101230.45;108136;1288;21998;-59
2023/05/14 08:02:11;;;;;;;2.30;1.40;;;;;;;34.23;26.65;101224.70;108097;1288;21996;-61
2023/05/14 08:04:38;;;;;;;5.40;1.60;;;;;;;34.38;25.69;101221.73;107962;1288;22027;-59
2023/05/14 08:07:04;;;;;;;4.40;1.60;;;;;;;34.49;26.03;101224.73;108109;1288;21986;-60
2023/05/14 08:09:30;;;;;;;3.20;1.30;;;;;;;34.51;25.80;101226.10;108123;1288;21992;-58
2023/05/14 08:11:56;;;;;;;4.70;1.80;;;;;;;34.66;26.35;101229.34;107853;1288;21991;-59
2023/05/14 08:14:22;;;;;;;4.10;1.70;;;;;;;34.89;26.07;101225.92;108178;1288;21987;-59
2023/05/14 08:16:47;;;;;;;7.30;1.70;;;;;;;35.06;25.85;101223.16;108110;1288;23723;-59
2023/05/14 08:19:13;;;;;;;3.80;1.60;;;;;;;35.31;25.96;101222.37;108085;1288;21989;-60
2023/05/14 08:21:39;;;;;;;7.40;1.80;;;;;;;35.57;25.79;101218.19;108144;1288;21995;-60
2023/05/14 08:24:05;;;;;;;5.40;1.40;;;;;;;35.80;25.28;101217.23;108088;1288;21992;-61
2023/05/14 08:26:31;;;;;;;4.70;1.80;;;;;;;35.83;23.81;101215.50;108131;1283;21990;-60
2023/05/14 08:28:56;;;;;;;3.50;1.30;;;;;;;35.67;23.84;101214.63;108105;1288;22056;-59
2023/05/14 08:31:22;;;;;;;3.50;1.70;;;;;;;35.58;23.75;101216.04;108083;1288;22080;-60
2023/05/14 08:33:48;;;;;;;3.30;1.40;;;;;;;35.69;23.37;101215.34;108117;1284;21990;-59
2023/05/14 08:36:14;;;;;;;5.80;2.10;;;;;;;35.78;23.28;101213.77;108103;1287;22004;-61
2023/05/14 08:38:44;;;;;;;3.90;1.50;;;;;;;35.84;22.69;101214.10;108105;1287;21995;-60
2023/05/14 08:41:10;;;;;;;;;;;;;;;35.85;22.43;101212.70;108104;1284;23058;-60
2023/05/14 08:43:44;;;;;;;3.10;1.30;;;;;;;35.83;22.69;101216.33;107973;1287;22003;-59
2023/05/14 08:46:10;;;;;;;2.60;1.40;;;;;;;35.97;22.17;101212.66;108163;1287;22017;-61
2023/05/14 08:48:37;;;;;;;3.70;1.60;;;;;;;35.98;22.23;101208.89;107861;1284;22757;-59
2023/05/14 08:51:03;;;;;;;6.30;1.80;;;;;;;35.89;22.45;101205.92;107801;1288;21984;-60
2023/05/14 08:53:29;;;;;;;5.10;2.00;;;;;;;36.09;23.37;101202.19;107598;1288;197614;-59
2023/05/14 08:55:55;;;;;;;4.90;1.50;;;;;;;36.44;23.20;101196.54;109972;1288;21901;-61
2023/05/14 08:58:21;;;;;;;4.80;1.40;;;;;;;36.80;22.89;101193.85;109989;1288;21933;-60
2023/05/14 09:00:47;;;;;;;6.10;1.50;;;;;;;37.17;23.07;101192.95;110000;1288;21923;-61
2023/05/14 09:03:12;;;;;;;5.00;1.60;;;;;;;37.48;22.73;101191.31;108581;1288;23053;-59
2023/05/14 09:05:38;;;;;;;2.50;1.30;;;;;;;37.74;22.03;101189.70;108085;1288;22024;-59
2023/05/14 09:08:04;;;;;;;3.90;1.40;;;;;;;37.94;22.61;101188.62;107883;1287;21994;-60
2023/05/14 09:10:31;;;;;;;3.90;1.30;;;;;;;38.17;22.57;101185.73;108003;1287;21987;-61
2023/05/14 09:12:57;;;;;;;6.40;1.70;;;;;;;38.36;22.38;101185.89;108101;1287;22024;-60
2023/05/14 09:15:23;;;;;;;2.50;1.40;;;;;;;38.52;22.14;101182.99;107975;1287;22953;-60
2023/05/14 09:17:49;;;;;;;4.40;1.50;;;;;;;38.63;21.94;101181.08;107844;1287;21989;-59
2023/05/14 09:20:14;;;;;;;4.20;1.60;;;;;;;38.78;21.95;101180.90;108027;1287;21996;-61
2023/05/14 09:22:40;;;;;;;4.00;1.70;;;;;;;38.78;20.75;101181.29;108027;1287;22002;-61
2023/05/14 09:25:11;;;;;;;6.20;1.50;;;;;;;38.29;19.80;101177.44;107759;1287;21990;-59
2023/05/14 09:27:37;;;;;;;4.90;1.90;;;;;;;37.67;19.57;101180.18;108100;1287;21989;-58
2023/05/14 09:30:12;;;;;;;5.10;1.50;;;;;;;37.42;20.45;101181.38;108069;1284;21981;-58
2023/05/14 09:32:42;;;;;;;9.70;2.10;;;;;;;37.67;21.37;101174.49;108108;1287;21994;-59
2023/05/14 09:35:19;;;;;;;3.40;1.60;;;;;;;38.07;21.47;101172.50;108117;1287;22510;-59
2023/05/14 09:37:47;;;;;;;5.30;2.30;;;;;;;38.53;21.13;101168.92;108088;1288;21992;-60
2023/05/14 09:40:13;;;;;;;3.90;2.00;;;;;;;38.84;20.78;101170.93;108124;1288;22023;-60
2023/05/14 09:42:40;;;;;;;4.00;2.40;;;;;;;39.03;20.50;101167.23;108125;1288;22021;-60
2023/05/14 09:45:07;;;;;;;7.70;3.00;;;;;;;39.32;20.53;101167.98;108118;1288;23918;-61
2023/05/14 09:47:34;;;;;;;3.90;2.20;;;;;;;39.60;19.83;101166.59;108088;1288;23599;-60
2023/05/14 09:50:00;;;;;;;3.60;2.00;;;;;;;39.57;19.58;101161.30;108042;1283;21980;-60
2023/05/14 09:52:26;;;;;;;6.80;3.00;;;;;;;39.55;19.79;101158.35;108066;1288;21992;-60
2023/05/14 09:54:52;;;;;;;7.30;2.50;;;;;;;39.67;19.87;101157.23;108090;1288;22218;-60
2023/05/14 09:57:18;;;;;;;6.80;3.00;;;;;;;39.83;20.21;101161.96;108044;1289;22019;-63
2023/05/14 09:59:44;;;;;;;7.60;2.30;;;;;;;39.93;19.93;101163.36;108102;1288;21987;-61
2023/05/14 10:02:36;;;;;;;13.80;3.10;;;;;;;39.85;19.83;101160.39;108037;1289;23355;-61
2023/05/14 10:05:03;;;;;;;6.50;2.60;;;;;;;39.56;20.06;101165.44;108062;1288;21988;-61
2023/05/14 10:07:34;;;;;;;4.80;2.70;;;;;;;39.29;20.02;101163.72;107950;1287;21992;-60
2023/05/14 10:10:02;;;;;;;2.90;1.70;;;;;;;39.08;19.65;101164.30;108025;1287;21995;-61
2023/05/14 10:12:32;;;;;;;4.50;2.00;;;;;;;38.89;19.19;101163.80;107849;1283;23051;-61
2023/05/14 10:14:59;;;;;;;2.70;2.00;;;;;;;38.86;19.37;101159.66;108167;1287;22517;-60
2023/05/14 10:17:24;;;;;;;10.70;2.70;;;;;;;38.96;19.62;101157.34;107884;1287;22340;-61
2023/05/14 10:19:52;;;;;;;8.30;2.30;;;;;;;39.10;19.32;101157.46;107774;1287;23900;-60
2023/05/14 10:22:21;;;;;;;4.00;2.20;;;;;;;39.22;18.41;101156.36;108099;1287;21989;-62
2023/05/14 10:24:51;;;;;;;9.00;2.50;;;;;;;39.08;18.67;101156.37;108115;1287;21986;-61
2023/05/14 10:27:20;;;;;;;18.50;2.80;;;;;;;39.17;19.53;101156.45;107911;1287;21978;-60
2023/05/14 10:29:53;;;;;;;6.30;1.80;;;;;;;39.55;19.44;101151.56;107943;1287;22048;-60
2023/05/14 10:32:19;;;;;;;4.40;2.00;;;;;;;39.80;18.08;101151.94;108173;1287;21982;-61
2023/05/14 10:34:45;;;;;;;5.60;2.20;;;;;;;39.61;17.70;101155.45;108169;1287;22016;-61
2023/05/14 10:37:14;;;;;;;13.80;2.90;;;;;;;39.33;17.98;101159.19;108177;1287;21986;-61
2023/05/14 10:39:52;;;;;;;3.40;1.90;;;;;;;39.30;17.59;101154.48;108162;1287;22062;-59
2023/05/14 10:42:22;;;;;;;4.00;1.60;;;;;;;39.26;18.15;101149.27;108379;1284;24297;-59
2023/05/14 10:44:52;;;;;;;5.40;2.00;;;;;;;39.58;19.01;101146.65;108202;1283;22235;-62
2023/05/14 10:47:18;;;;;;;4.60;2.10;;;;;;;40.09;19.26;101150.37;108145;1287;23755;-60
2023/05/14 10:49:47;;;;;;;3.10;1.80;;;;;;;40.58;18.84;101152.19;107792;1284;22092;-62
2023/05/14 10:52:16;;;;;;;6.30;1.70;;;;;;;40.85;18.07;101149.34;107882;1287;21982;-61
2023/05/14 10:54:50;;;;;;;3.90;1.80;;;;;;;40.95;18.20;101147.63;107903;1286;23584;-62
2023/05/14 10:57:17;;;;;;;3.70;1.90;;;;;;;41.21;18.46;101153.49;108119;1287;21992;-61
2023/05/14 10:59:43;;;;;;;4.50;1.90;;;;;;;41.52;18.57;101153.10;108124;1287;22230;-60
2023/05/14 11:02:22;;;;;;;4.00;1.80;;;;;;;41.92;18.54;101147.72;108086;1287;21989;-61
2023/05/14 11:05:08;;;;;;;8.40;2.10;;;;;;;42.21;17.32;101139.95;107862;1287;21987;-61
2023/05/14 11:07:38;;;;;;;2.30;1.70;;;;;;;41.98;16.57;101145.08;107961;1287;21982;-59
2023/05/14 11:10:07;;;;;;;5.30;2.00;;;;;;;41.55;16.42;101147.04;108118;1287;22082;-60
2023/05/14 11:12:35;;;;;;;3.40;2.20;;;;;;;41.18;16.85;101141.13;108141;1287;23595;-61
2023/05/14 11:15:02;;;;;;;3.40;1.80;;;;;;;41.23;17.78;101138.30;108168;1278;24406;-60